sensor_id;sensor_type;location;lat;lon;timestamp;pressure;altitude;pressure_sealevel;temperature;humidity
67803;BME280;54601;51.378;-1.342;2023-04-15T00:01:27;99616.08;;;19.02;30.00
67803;BME280;54601;51.378;-1.342;2023-04-15T00:03:53;99616.25;;;18.71;30.08
67803;BME280;54601;51.378;-1.342;2023-04-15T00:06:18;99614.81;;;18.64;30.12
67803;BME280;54601;51.378;-1.342;2023-04-15T00:08:42;99616.40;;;19.11;29.65
67803;BME280;54601;51.378;-1.342;2023-04-15T00:11:07;99623.36;;;19.05;29.90
67803;BME280;54601;51.378;-1.342;2023-04-15T00:13:32;99628.71;;;19.00;29.96
67803;BME280;54601;51.378;-1.342;2023-04-15T00:15:58;99634.70;;;18.87;30.08
67803;BME280;54601;51.378;-1.342;2023-04-15T00:18:23;99638.88;;;19.45;29.41
67803;BME280;54601;51.378;-1.342;2023-04-15T00:20:48;99641.25;;;18.97;29.67
67803;BME280;54601;51.378;-1.342;2023-04-15T00:23:13;99641.20;;;18.87;29.77
67803;BME280;54601;51.378;-1.342;2023-04-15T00:25:38;99644.10;;;18.60;29.75
67803;BME280;54601;51.378;-1.342;2023-04-15T00:28:03;99645.29;;;18.90;29.96
67803;BME280;54601;51.378;-1.342;2023-04-15T00:30:28;99647.27;;;18.83;29.77
67803;BME280;54601;51.378;-1.342;2023-04-15T00:32:53;99650.86;;;18.98;29.79
67803;BME280;54601;51.378;-1.342;2023-04-15T00:35:19;99653.44;;;18.90;29.65
67803;BME280;54601;51.378;-1.342;2023-04-15T00:37:44;99652.74;;;19.37;29.38
67803;BME280;54601;51.378;-1.342;2023-04-15T00:40:11;99657.08;;;18.59;29.96
67803;BME280;54601;51.378;-1.342;2023-04-15T00:42:35;99660.84;;;19.02;29.73
67803;BME280;54601;51.378;-1.342;2023-04-15T00:44:59;99658.68;;;18.83;29.86
67803;BME280;54601;51.378;-1.342;2023-04-15T00:47:25;99660.33;;;18.94;29.75
67803;BME280;54601;51.378;-1.342;2023-04-15T00:49:49;99662.99;;;18.82;29.87
67803;BME280;54601;51.378;-1.342;2023-04-15T00:52:15;99658.91;;;18.79;29.65
67803;BME280;54601;51.378;-1.342;2023-04-15T00:54:40;99662.02;;;18.53;29.90
67803;BME280;54601;51.378;-1.342;2023-04-15T00:57:05;99669.34;;;18.41;30.03
67803;BME280;54601;51.378;-1.342;2023-04-15T00:59:30;99674.29;;;18.58;30.03
67803;BME280;54601;51.378;-1.342;2023-04-15T01:01:55;99672.95;;;18.67;29.95
67803;BME280;54601;51.378;-1.342;2023-04-15T01:04:20;99675.65;;;18.55;29.82
67803;BME280;54601;51.378;-1.342;2023-04-15T01:06:45;99676.54;;;18.77;29.81
67803;BME280;54601;51.378;-1.342;2023-04-15T01:09:10;99672.45;;;18.54;29.80
67803;BME280;54601;51.378;-1.342;2023-04-15T01:11:35;99678.26;;;19.10;29.43
67803;BME280;54601;51.378;-1.342;2023-04-15T01:14:01;99681.49;;;18.69;29.86
67803;BME280;54601;51.378;-1.342;2023-04-15T01:16:26;99683.76;;;18.77;29.76
67803;BME280;54601;51.378;-1.342;2023-04-15T01:18:51;99690.73;;;18.39;30.12
67803;BME280;54601;51.378;-1.342;2023-04-15T01:21:16;99694.32;;;18.55;29.71
67803;BME280;54601;51.378;-1.342;2023-04-15T01:23:44;99697.68;;;18.68;29.79
67803;BME280;54601;51.378;-1.342;2023-04-15T01:26:07;99704.96;;;18.51;29.97
67803;BME280;54601;51.378;-1.342;2023-04-15T01:28:31;99706.00;;;18.75;29.68
67803;BME280;54601;51.378;-1.342;2023-04-15T01:31:05;99702.68;;;18.30;30.13
67803;BME280;54601;51.378;-1.342;2023-04-15T01:33:21;99710.92;;;18.45;29.96
67803;BME280;54601;51.378;-1.342;2023-04-15T01:35:47;99717.49;;;18.20;29.99
67803;BME280;54601;51.378;-1.342;2023-04-15T01:38:12;99725.35;;;18.79;29.62
67803;BME280;54601;51.378;-1.342;2023-04-15T01:40:37;99724.17;;;18.34;30.05
67803;BME280;54601;51.378;-1.342;2023-04-15T01:43:02;99727.95;;;18.57;29.80
67803;BME280;54601;51.378;-1.342;2023-04-15T01:45:28;99728.05;;;18.41;29.92
67803;BME280;54601;51.378;-1.342;2023-04-15T01:47:53;99728.67;;;18.29;29.84
67803;BME280;54601;51.378;-1.342;2023-04-15T01:50:18;99732.37;;;18.29;30.02
67803;BME280;54601;51.378;-1.342;2023-04-15T01:52:43;99736.43;;;18.55;29.77
67803;BME280;54601;51.378;-1.342;2023-04-15T01:55:10;99740.75;;;18.63;29.66
67803;BME280;54601;51.378;-1.342;2023-04-15T01:57:33;99741.96;;;18.31;29.99
67803;BME280;54601;51.378;-1.342;2023-04-15T01:59:58;99748.21;;;18.10;30.21
67803;BME280;54601;51.378;-1.342;2023-04-15T02:02:23;99748.71;;;18.23;30.04
67803;BME280;54601;51.378;-1.342;2023-04-15T02:04:48;99753.01;;;18.32;29.94
67803;BME280;54601;51.378;-1.342;2023-04-15T02:07:14;99756.15;;;18.26;30.02
67803;BME280;54601;51.378;-1.342;2023-04-15T02:09:39;99760.99;;;18.20;30.06
67803;BME280;54601;51.378;-1.342;2023-04-15T02:12:04;99767.60;;;18.51;29.66
67803;BME280;54601;51.378;-1.342;2023-04-15T02:14:29;99771.97;;;18.46;29.72
67803;BME280;54601;51.378;-1.342;2023-04-15T02:16:54;99775.94;;;18.36;29.82
67803;BME280;54601;51.378;-1.342;2023-04-15T02:19:19;99780.57;;;18.47;29.70
67803;BME280;54601;51.378;-1.342;2023-04-15T02:21:44;99782.42;;;18.11;29.80
67803;BME280;54601;51.378;-1.342;2023-04-15T02:24:10;99787.98;;;18.09;30.09
67803;BME280;54601;51.378;-1.342;2023-04-15T02:26:35;99787.61;;;18.04;30.13
67803;BME280;54601;51.378;-1.342;2023-04-15T02:29:00;99785.18;;;18.16;29.97
67803;BME280;54601;51.378;-1.342;2023-04-15T02:31:25;99785.04;;;18.16;29.97
67803;BME280;54601;51.378;-1.342;2023-04-15T02:33:50;99791.33;;;18.11;30.01
67803;BME280;54601;51.378;-1.342;2023-04-15T02:36:16;99792.76;;;18.28;29.84
67803;BME280;54601;51.378;-1.342;2023-04-15T02:38:41;99797.42;;;18.06;30.07
67803;BME280;54601;51.378;-1.342;2023-04-15T02:41:06;99802.03;;;18.11;29.98
67803;BME280;54601;51.378;-1.342;2023-04-15T02:43:31;99804.28;;;18.26;29.80
67803;BME280;54601;51.378;-1.342;2023-04-15T02:45:56;99809.77;;;18.06;29.98
67803;BME280;54601;51.378;-1.342;2023-04-15T02:48:21;99810.83;;;18.01;30.07
67803;BME280;54601;51.378;-1.342;2023-04-15T02:50:46;99810.86;;;17.89;30.14
67803;BME280;54601;51.378;-1.342;2023-04-15T02:53:12;99816.18;;;18.39;29.59
67803;BME280;54601;51.378;-1.342;2023-04-15T02:55:37;99821.71;;;18.08;29.94
67803;BME280;54601;51.378;-1.342;2023-04-15T02:58:02;99825.44;;;18.38;29.61
67803;BME280;54601;51.378;-1.342;2023-04-15T03:00:27;99828.66;;;18.01;29.97
67803;BME280;54601;51.378;-1.342;2023-04-15T03:02:57;99829.61;;;18.10;29.88
67803;BME280;54601;51.378;-1.342;2023-04-15T03:05:17;99829.86;;;18.27;29.64
67803;BME280;54601;51.378;-1.342;2023-04-15T03:07:43;99833.39;;;18.18;29.73
67803;BME280;54601;51.378;-1.342;2023-04-15T03:10:08;99831.13;;;18.51;29.43
67803;BME280;54601;51.378;-1.342;2023-04-15T03:12:33;99835.01;;;18.05;29.84
67803;BME280;54601;51.378;-1.342;2023-04-15T03:14:58;99834.27;;;18.26;29.64
67803;BME280;54601;51.378;-1.342;2023-04-15T03:17:23;99836.14;;;18.05;29.86
67803;BME280;54601;51.378;-1.342;2023-04-15T03:19:48;99842.77;;;18.07;29.83
67803;BME280;54601;51.378;-1.342;2023-04-15T03:22:13;99845.46;;;17.87;29.98
67803;BME280;54601;51.378;-1.342;2023-04-15T03:24:39;99853.97;;;17.80;29.87
67803;BME280;54601;51.378;-1.342;2023-04-15T03:27:04;99856.41;;;18.01;29.90
67803;BME280;54601;51.378;-1.342;2023-04-15T03:29:29;99858.00;;;17.94;29.95
67803;BME280;54601;51.378;-1.342;2023-04-15T03:31:54;99858.85;;;17.92;29.96
67803;BME280;54601;51.378;-1.342;2023-04-15T03:34:19;99862.30;;;18.01;30.12
67803;BME280;54601;51.378;-1.342;2023-04-15T03:36:45;99869.59;;;17.90;29.97
67803;BME280;54601;51.378;-1.342;2023-04-15T03:39:10;99877.17;;;18.74;29.62
67803;BME280;54601;51.378;-1.342;2023-04-15T03:41:35;99875.84;;;18.01;29.90
67803;BME280;54601;51.378;-1.342;2023-04-15T03:44:00;99880.64;;;17.78;30.08
67803;BME280;54601;51.378;-1.342;2023-04-15T03:46:25;99889.63;;;17.63;30.29
67803;BME280;54601;51.378;-1.342;2023-04-15T03:48:50;99895.14;;;18.08;29.79
67803;BME280;54601;51.378;-1.342;2023-04-15T03:51:16;99900.48;;;18.14;29.75
67803;BME280;54601;51.378;-1.342;2023-04-15T03:53:41;99902.22;;;17.98;29.92
67803;BME280;54601;51.378;-1.342;2023-04-15T03:56:06;99902.59;;;17.68;30.21
67803;BME280;54601;51.378;-1.342;2023-04-15T03:58:31;99904.64;;;17.78;30.14
67803;BME280;54601;51.378;-1.342;2023-04-15T04:00:56;99904.04;;;17.92;29.97
67803;BME280;54601;51.378;-1.342;2023-04-15T04:03:21;99904.09;;;17.64;30.29
67803;BME280;54601;51.378;-1.342;2023-04-15T04:05:47;99910.13;;;17.84;30.08
67803;BME280;54601;51.378;-1.342;2023-04-15T04:08:12;99910.09;;;17.77;30.16
67803;BME280;54601;51.378;-1.342;2023-04-15T04:10:37;99915.55;;;18.16;29.75
67803;BME280;54601;51.378;-1.342;2023-04-15T04:13:02;99913.10;;;18.65;29.28
67803;BME280;54601;51.378;-1.342;2023-04-15T04:15:27;99917.13;;;18.39;29.53
67803;BME280;54601;51.378;-1.342;2023-04-15T04:17:53;99919.98;;;18.16;29.76
67803;BME280;54601;51.378;-1.342;2023-04-15T04:20:18;99924.96;;;18.37;29.54
67803;BME280;54601;51.378;-1.342;2023-04-15T04:22:43;99930.23;;;18.34;29.58
67803;BME280;54601;51.378;-1.342;2023-04-15T04:25:08;99932.70;;;18.14;29.79
67803;BME280;54601;51.378;-1.342;2023-04-15T04:27:33;99936.89;;;18.07;29.87
67803;BME280;54601;51.378;-1.342;2023-04-15T04:29:58;99939.73;;;18.53;29.44
67803;BME280;54601;51.378;-1.342;2023-04-15T04:32:24;99939.49;;;18.25;29.45
67803;BME280;54601;51.378;-1.342;2023-04-15T04:34:49;99941.97;;;18.44;29.50
67803;BME280;54601;51.378;-1.342;2023-04-15T04:37:14;99947.46;;;18.48;29.45
67803;BME280;54601;51.378;-1.342;2023-04-15T04:39:39;99949.34;;;18.57;29.37
67803;BME280;54601;51.378;-1.342;2023-04-15T04:42:04;99950.45;;;18.45;29.49
67803;BME280;54601;51.378;-1.342;2023-04-15T04:44:30;99957.50;;;18.70;29.22
67803;BME280;54601;51.378;-1.342;2023-04-15T04:46:55;99957.75;;;19.24;28.69
67803;BME280;54601;51.378;-1.342;2023-04-15T04:49:20;99966.75;;;18.88;28.79
67803;BME280;54601;51.378;-1.342;2023-04-15T04:51:45;99975.30;;;18.89;29.02
67803;BME280;54601;51.378;-1.342;2023-04-15T04:54:10;99981.56;;;18.72;29.18
67803;BME280;54601;51.378;-1.342;2023-04-15T04:56:35;99987.03;;;18.66;29.30
67803;BME280;54601;51.378;-1.342;2023-04-15T04:59:00;99988.68;;;18.54;29.40
67803;BME280;54601;51.378;-1.342;2023-04-15T05:01:26;99992.32;;;18.55;29.43
67803;BME280;54601;51.378;-1.342;2023-04-15T05:03:51;99996.10;;;17.86;29.96
67803;BME280;54601;51.378;-1.342;2023-04-15T05:06:16;100001.27;;;17.98;30.12
67803;BME280;54601;51.378;-1.342;2023-04-15T05:08:41;100012.88;;;18.07;30.04
67803;BME280;54601;51.378;-1.342;2023-04-15T05:11:06;100017.64;;;18.87;29.18
67803;BME280;54601;51.378;-1.342;2023-04-15T05:13:31;100015.59;;;19.27;28.72
67803;BME280;54601;51.378;-1.342;2023-04-15T05:15:56;100019.90;;;18.61;29.42
67803;BME280;54601;51.378;-1.342;2023-04-15T05:18:22;100027.10;;;17.59;30.53
67803;BME280;54601;51.378;-1.342;2023-04-15T05:20:47;100034.13;;;18.45;29.68
67803;BME280;54601;51.378;-1.342;2023-04-15T05:23:12;100039.45;;;18.74;29.35
67803;BME280;54601;51.378;-1.342;2023-04-15T05:25:37;100053.98;;;18.43;29.66
67803;BME280;54601;51.378;-1.342;2023-04-15T05:28:02;100059.37;;;18.41;29.67
67803;BME280;54601;51.378;-1.342;2023-04-15T05:30:27;100064.13;;;18.92;29.13
67803;BME280;54601;51.378;-1.342;2023-04-15T05:32:52;100071.23;;;18.12;30.05
67803;BME280;54601;51.378;-1.342;2023-04-15T05:35:17;100076.36;;;18.40;29.96
67803;BME280;54601;51.378;-1.342;2023-04-15T05:37:43;100081.88;;;18.24;29.89
67803;BME280;54601;51.378;-1.342;2023-04-15T05:40:08;100086.90;;;17.74;30.17
67803;BME280;54601;51.378;-1.342;2023-04-15T05:42:34;100092.94;;;18.01;30.14
67803;BME280;54601;51.378;-1.342;2023-04-15T05:44:58;100099.03;;;18.22;30.25
67803;BME280;54601;51.378;-1.342;2023-04-15T05:47:23;100109.14;;;17.77;30.40
67803;BME280;54601;51.378;-1.342;2023-04-15T05:49:49;100112.57;;;17.59;30.63
67803;BME280;54601;51.378;-1.342;2023-04-15T05:52:14;100121.03;;;18.01;30.16
67803;BME280;54601;51.378;-1.342;2023-04-15T05:54:39;100127.10;;;18.41;30.05
67803;BME280;54601;51.378;-1.342;2023-04-15T05:57:04;100133.89;;;17.80;30.41
67803;BME280;54601;51.378;-1.342;2023-04-15T05:59:29;100143.41;;;18.28;29.97
67803;BME280;54601;51.378;-1.342;2023-04-15T06:01:54;100149.38;;;18.15;30.00
67803;BME280;54601;51.378;-1.342;2023-04-15T06:04:19;100155.65;;;18.15;29.85
67803;BME280;54601;51.378;-1.342;2023-04-15T06:06:45;100158.61;;;17.65;30.55
67803;BME280;54601;51.378;-1.342;2023-04-15T06:09:10;100160.19;;;17.56;30.72
67803;BME280;54601;51.378;-1.342;2023-04-15T06:11:35;100165.48;;;18.65;29.57
67803;BME280;54601;51.378;-1.342;2023-04-15T06:14:00;100170.85;;;18.65;29.54
67803;BME280;54601;51.378;-1.342;2023-04-15T06:16:25;100173.98;;;18.71;29.45
67803;BME280;54601;51.378;-1.342;2023-04-15T06:18:51;100181.93;;;18.11;30.12
67803;BME280;54601;51.378;-1.342;2023-04-15T06:21:16;100184.83;;;18.09;30.15
67803;BME280;54601;51.378;-1.342;2023-04-15T06:23:41;100189.72;;;18.07;30.19
67803;BME280;54601;51.378;-1.342;2023-04-15T06:26:06;100188.06;;;18.08;30.19
67803;BME280;54601;51.378;-1.342;2023-04-15T06:28:31;100194.32;;;18.49;30.02
67803;BME280;54601;51.378;-1.342;2023-04-15T06:30:57;100201.37;;;17.81;30.24
67803;BME280;54601;51.378;-1.342;2023-04-15T06:33:22;100195.50;;;17.58;30.51
67803;BME280;54601;51.378;-1.342;2023-04-15T06:35:47;100204.96;;;18.13;30.16
67803;BME280;54601;51.378;-1.342;2023-04-15T06:38:12;100206.88;;;18.12;29.96
67803;BME280;54601;51.378;-1.342;2023-04-15T06:40:37;100211.81;;;18.08;30.22
67803;BME280;54601;51.378;-1.342;2023-04-15T06:43:02;100219.07;;;18.20;30.10
67803;BME280;54601;51.378;-1.342;2023-04-15T06:45:28;100221.86;;;18.05;30.26
67803;BME280;54601;51.378;-1.342;2023-04-15T06:47:53;100229.77;;;18.27;30.04
67803;BME280;54601;51.378;-1.342;2023-04-15T06:50:18;100234.93;;;18.39;29.95
67803;BME280;54601;51.378;-1.342;2023-04-15T06:52:43;100237.15;;;17.91;30.45
67803;BME280;54601;51.378;-1.342;2023-04-15T06:55:08;100245.89;;;18.21;29.96
67803;BME280;54601;51.378;-1.342;2023-04-15T06:57:33;100246.20;;;17.88;30.49
67803;BME280;54601;51.378;-1.342;2023-04-15T06:59:58;100246.01;;;17.85;30.55
67803;BME280;54601;51.378;-1.342;2023-04-15T07:02:24;100252.98;;;17.42;31.02
67803;BME280;54601;51.378;-1.342;2023-04-15T07:04:49;100257.62;;;17.87;30.52
67803;BME280;54601;51.378;-1.342;2023-04-15T07:07:14;100260.59;;;17.74;30.68
67803;BME280;54601;51.378;-1.342;2023-04-15T07:09:39;100265.51;;;17.71;30.72
67803;BME280;54601;51.378;-1.342;2023-04-15T07:12:04;100270.84;;;17.74;30.71
67803;BME280;54601;51.378;-1.342;2023-04-15T07:14:29;100277.71;;;17.41;31.06
67803;BME280;54601;51.378;-1.342;2023-04-15T07:16:54;100283.29;;;17.16;31.38
67803;BME280;54601;51.378;-1.342;2023-04-15T07:19:20;100289.73;;;16.98;31.68
67803;BME280;54601;51.378;-1.342;2023-04-15T07:21:46;100295.28;;;17.08;31.70
67803;BME280;54601;51.378;-1.342;2023-04-15T07:24:10;100301.34;;;18.00;30.87
67803;BME280;54601;51.378;-1.342;2023-04-15T07:26:35;100298.56;;;18.06;30.63
67803;BME280;54601;51.378;-1.342;2023-04-15T07:29:00;100299.92;;;17.30;31.52
67803;BME280;54601;51.378;-1.342;2023-04-15T07:31:25;100303.86;;;17.60;31.37
67803;BME280;54601;51.378;-1.342;2023-04-15T07:33:51;100303.86;;;17.49;31.68
67803;BME280;54601;51.378;-1.342;2023-04-15T07:36:16;100313.37;;;17.83;31.30
67803;BME280;54601;51.378;-1.342;2023-04-15T07:38:41;100320.47;;;17.78;31.20
67803;BME280;54601;51.378;-1.342;2023-04-15T07:41:06;100326.34;;;18.21;30.83
67803;BME280;54601;51.378;-1.342;2023-04-15T07:43:31;100331.82;;;18.26;30.86
67803;BME280;54601;51.378;-1.342;2023-04-15T07:45:56;100334.87;;;18.37;30.46
67803;BME280;54601;51.378;-1.342;2023-04-15T07:48:21;100344.83;;;18.60;30.62
67803;BME280;54601;51.378;-1.342;2023-04-15T07:50:47;100349.57;;;18.56;30.63
67803;BME280;54601;51.378;-1.342;2023-04-15T07:53:11;100354.32;;;18.46;30.80
67803;BME280;54601;51.378;-1.342;2023-04-15T07:55:37;100355.47;;;18.93;30.16
67803;BME280;54601;51.378;-1.342;2023-04-15T07:58:02;100363.95;;;18.55;30.36
67803;BME280;54601;51.378;-1.342;2023-04-15T08:00:27;100370.58;;;18.85;30.36
67803;BME280;54601;51.378;-1.342;2023-04-15T08:02:52;100375.20;;;18.90;30.23
67803;BME280;54601;51.378;-1.342;2023-04-15T08:05:17;100379.56;;;18.62;30.53
67803;BME280;54601;51.378;-1.342;2023-04-15T08:07:42;100384.26;;;18.89;30.47
67803;BME280;54601;51.378;-1.342;2023-04-15T08:10:07;100388.01;;;18.62;30.32
67803;BME280;54601;51.378;-1.342;2023-04-15T08:12:32;100393.02;;;19.04;30.36
67803;BME280;54601;51.378;-1.342;2023-04-15T08:14:58;100397.37;;;19.41;30.31
67803;BME280;54601;51.378;-1.342;2023-04-15T08:17:23;100402.84;;;19.68;29.72
67803;BME280;54601;51.378;-1.342;2023-04-15T08:19:48;100406.71;;;19.62;29.58
67803;BME280;54601;51.378;-1.342;2023-04-15T08:22:13;100408.83;;;19.47;29.58
67803;BME280;54601;51.378;-1.342;2023-04-15T08:24:38;100407.54;;;19.27;29.98
67803;BME280;54601;51.378;-1.342;2023-04-15T08:27:03;100408.04;;;19.07;30.19
67803;BME280;54601;51.378;-1.342;2023-04-15T08:29:28;100413.34;;;19.57;29.90
67803;BME280;54601;51.378;-1.342;2023-04-15T08:31:53;100419.19;;;18.54;30.76
67803;BME280;54601;51.378;-1.342;2023-04-15T08:34:18;100425.83;;;18.85;30.41
67803;BME280;54601;51.378;-1.342;2023-04-15T08:36:43;100431.36;;;18.86;30.66
67803;BME280;54601;51.378;-1.342;2023-04-15T08:39:08;100436.25;;;19.04;30.53
67803;BME280;54601;51.378;-1.342;2023-04-15T08:41:39;100436.04;;;18.81;30.85
67803;BME280;54601;51.378;-1.342;2023-04-15T08:44:02;100442.72;;;18.55;30.93
67803;BME280;54601;51.378;-1.342;2023-04-15T08:46:24;100452.32;;;18.78;30.64
67803;BME280;54601;51.378;-1.342;2023-04-15T08:48:49;100459.95;;;18.84;30.50
67803;BME280;54601;51.378;-1.342;2023-04-15T08:51:15;100458.00;;;18.81;30.29
67803;BME280;54601;51.378;-1.342;2023-04-15T08:53:39;100466.09;;;18.72;30.63
67803;BME280;54601;51.378;-1.342;2023-04-15T08:56:06;100472.56;;;18.84;30.74
67803;BME280;54601;51.378;-1.342;2023-04-15T08:58:30;100476.17;;;18.77;30.59
67803;BME280;54601;51.378;-1.342;2023-04-15T09:00:55;100478.45;;;18.78;30.78
67803;BME280;54601;51.378;-1.342;2023-04-15T09:03:20;100484.06;;;18.47;30.65
67803;BME280;54601;51.378;-1.342;2023-04-15T09:05:45;100488.90;;;18.76;30.47
67803;BME280;54601;51.378;-1.342;2023-04-15T09:08:10;100492.83;;;18.85;30.36
67803;BME280;54601;51.378;-1.342;2023-04-15T09:10:35;100492.29;;;18.39;30.88
67803;BME280;54601;51.378;-1.342;2023-04-15T09:13:00;100495.70;;;18.82;30.70
67803;BME280;54601;51.378;-1.342;2023-04-15T09:15:25;100501.72;;;18.45;31.07
67803;BME280;54601;51.378;-1.342;2023-04-15T09:17:50;100505.13;;;17.77;31.36
67803;BME280;54601;51.378;-1.342;2023-04-15T09:20:16;100510.02;;;17.69;31.42
67803;BME280;54601;51.378;-1.342;2023-04-15T09:22:42;100511.69;;;18.94;30.52
67803;BME280;54601;51.378;-1.342;2023-04-15T09:27:35;100514.65;;;18.03;31.46
67803;BME280;54601;51.378;-1.342;2023-04-15T09:29:56;100518.88;;;18.57;30.65
67803;BME280;54601;51.378;-1.342;2023-04-15T09:32:21;100519.56;;;18.35;30.83
67803;BME280;54601;51.378;-1.342;2023-04-15T09:34:46;100519.19;;;18.80;30.62
67803;BME280;54601;51.378;-1.342;2023-04-15T09:37:11;100521.77;;;17.77;31.80
67803;BME280;54601;51.378;-1.342;2023-04-15T09:42:05;100527.99;;;18.00;31.56
67803;BME280;54601;51.378;-1.342;2023-04-15T09:44:26;100532.92;;;17.52;32.16
67803;BME280;54601;51.378;-1.342;2023-04-15T09:46:52;100536.54;;;17.56;31.83
67803;BME280;54601;51.378;-1.342;2023-04-15T09:49:17;100541.58;;;17.61;31.97
67803;BME280;54601;51.378;-1.342;2023-04-15T09:51:42;100545.50;;;17.78;31.82
67803;BME280;54601;51.378;-1.342;2023-04-15T09:54:07;100548.19;;;18.17;31.42
67803;BME280;54601;51.378;-1.342;2023-04-15T09:56:34;100546.92;;;18.43;30.86
67803;BME280;54601;51.378;-1.342;2023-04-15T09:58:57;100549.49;;;18.10;31.35
67803;BME280;54601;51.378;-1.342;2023-04-15T10:01:22;100550.64;;;18.34;31.45
67803;BME280;54601;51.378;-1.342;2023-04-15T10:03:48;100555.07;;;18.06;31.45
67803;BME280;54601;51.378;-1.342;2023-04-15T10:06:13;100556.64;;;18.23;31.23
67803;BME280;54601;51.378;-1.342;2023-04-15T10:08:37;100557.95;;;18.04;31.09
67803;BME280;54601;51.378;-1.342;2023-04-15T10:11:03;100560.16;;;18.52;31.09
67803;BME280;54601;51.378;-1.342;2023-04-15T10:13:30;100562.33;;;18.29;30.79
67803;BME280;54601;51.378;-1.342;2023-04-15T10:15:57;100565.57;;;18.42;31.13
67803;BME280;54601;51.378;-1.342;2023-04-15T10:18:19;100571.53;;;18.48;30.82
67803;BME280;54601;51.378;-1.342;2023-04-15T10:20:43;100575.81;;;18.47;30.50
67803;BME280;54601;51.378;-1.342;2023-04-15T10:23:08;100579.89;;;18.15;31.14
67803;BME280;54601;51.378;-1.342;2023-04-15T10:25:33;100580.35;;;18.74;30.52
67803;BME280;54601;51.378;-1.342;2023-04-15T10:27:59;100587.35;;;18.40;30.89
67803;BME280;54601;51.378;-1.342;2023-04-15T10:30:23;100589.73;;;18.57;30.96
67803;BME280;54601;51.378;-1.342;2023-04-15T10:32:49;100595.29;;;18.32;30.69
67803;BME280;54601;51.378;-1.342;2023-04-15T10:35:14;100595.71;;;18.33;30.67
67803;BME280;54601;51.378;-1.342;2023-04-15T10:37:38;100598.96;;;18.27;31.28
67803;BME280;54601;51.378;-1.342;2023-04-15T10:42:33;100609.52;;;18.03;31.06
67803;BME280;54601;51.378;-1.342;2023-04-15T10:44:56;100609.93;;;18.13;31.02
67803;BME280;54601;51.378;-1.342;2023-04-15T10:47:20;100609.73;;;18.34;31.20
67803;BME280;54601;51.378;-1.342;2023-04-15T10:49:46;100614.89;;;18.09;31.50
67803;BME280;54601;51.378;-1.342;2023-04-15T10:52:09;100614.11;;;17.87;31.91
67803;BME280;54601;51.378;-1.342;2023-04-15T10:54:34;100621.10;;;18.00;31.60
67803;BME280;54601;51.378;-1.342;2023-04-15T10:57:08;100624.29;;;17.95;31.87
67803;BME280;54601;51.378;-1.342;2023-04-15T10:59:24;100622.90;;;18.36;31.40
67803;BME280;54601;51.378;-1.342;2023-04-15T11:01:50;100625.86;;;18.03;31.57
67803;BME280;54601;51.378;-1.342;2023-04-15T11:04:15;100626.17;;;17.93;31.67
67803;BME280;54601;51.378;-1.342;2023-04-15T11:06:43;100631.85;;;18.12;31.69
67803;BME280;54601;51.378;-1.342;2023-04-15T11:09:05;100633.61;;;18.08;31.48
67803;BME280;54601;51.378;-1.342;2023-04-15T11:13:55;100635.41;;;17.82;31.88
67803;BME280;54601;51.378;-1.342;2023-04-15T11:16:20;100634.70;;;17.59;32.14
67803;BME280;54601;51.378;-1.342;2023-04-15T11:18:53;100642.52;;;17.83;31.91
67803;BME280;54601;51.378;-1.342;2023-04-15T11:21:10;100643.50;;;18.09;31.86
67803;BME280;54601;51.378;-1.342;2023-04-15T11:23:38;100641.35;;;17.86;32.14
67803;BME280;54601;51.378;-1.342;2023-04-15T11:26:02;100644.09;;;17.95;32.01
67803;BME280;54601;51.378;-1.342;2023-04-15T11:28:26;100652.02;;;17.76;32.04
67803;BME280;54601;51.378;-1.342;2023-04-15T11:30:50;100649.91;;;17.85;31.93
67803;BME280;54601;51.378;-1.342;2023-04-15T11:33:16;100655.44;;;17.90;31.90
67803;BME280;54601;51.378;-1.342;2023-04-15T11:35:41;100660.83;;;17.58;31.93
67803;BME280;54601;51.378;-1.342;2023-04-15T11:38:09;100661.86;;;18.16;31.58
67803;BME280;54601;51.378;-1.342;2023-04-15T11:40:31;100662.82;;;18.10;31.60
67803;BME280;54601;51.378;-1.342;2023-04-15T11:43:04;100665.75;;;18.29;31.63
67803;BME280;54601;51.378;-1.342;2023-04-15T11:45:21;100665.84;;;18.25;31.70
67803;BME280;54601;51.378;-1.342;2023-04-15T11:47:46;100667.84;;;17.59;31.84
67803;BME280;54601;51.378;-1.342;2023-04-15T11:50:16;100670.68;;;17.88;31.86
67803;BME280;54601;51.378;-1.342;2023-04-15T11:52:36;100673.25;;;17.90;31.84
67803;BME280;54601;51.378;-1.342;2023-04-15T11:55:02;100672.54;;;17.79;31.65
67803;BME280;54601;51.378;-1.342;2023-04-15T11:57:30;100680.49;;;17.79;31.99
67803;BME280;54601;51.378;-1.342;2023-04-15T11:59:54;100683.16;;;17.96;32.00
67803;BME280;54601;51.378;-1.342;2023-04-15T12:02:17;100677.72;;;18.23;31.45
67803;BME280;54601;51.378;-1.342;2023-04-15T12:04:41;100685.44;;;18.32;31.58
67803;BME280;54601;51.378;-1.342;2023-04-15T12:07:07;100687.70;;;18.13;31.56
67803;BME280;54601;51.378;-1.342;2023-04-15T12:09:36;100691.60;;;17.83;31.58
67803;BME280;54601;51.378;-1.342;2023-04-15T12:11:56;100698.79;;;18.01;31.72
67803;BME280;54601;51.378;-1.342;2023-04-15T12:14:24;100703.89;;;18.20;31.79
67803;BME280;54601;51.378;-1.342;2023-04-15T12:16:48;100705.87;;;17.94;31.88
67803;BME280;54601;51.378;-1.342;2023-04-15T12:19:14;100708.03;;;17.77;31.77
67803;BME280;54601;51.378;-1.342;2023-04-15T12:21:38;100710.32;;;18.03;31.77
67803;BME280;54601;51.378;-1.342;2023-04-15T12:24:04;100710.13;;;17.84;31.67
67803;BME280;54601;51.378;-1.342;2023-04-15T12:26:28;100718.05;;;17.84;31.71
67803;BME280;54601;51.378;-1.342;2023-04-15T12:28:53;100714.82;;;18.36;31.44
67803;BME280;54601;51.378;-1.342;2023-04-15T12:31:17;100716.07;;;18.40;31.44
67803;BME280;54601;51.378;-1.342;2023-04-15T12:33:42;100718.50;;;18.03;31.59
67803;BME280;54601;51.378;-1.342;2023-04-15T12:36:07;100724.82;;;18.03;31.85
67803;BME280;54601;51.378;-1.342;2023-04-15T12:38:32;100731.00;;;18.06;31.84
67803;BME280;54601;51.378;-1.342;2023-04-15T12:40:58;100734.54;;;18.09;32.03